sensor_id;sensor_type;location;lat;lon;timestamp;P1;durP1;ratioP1;P2;durP2;ratioP2
22644;SDS011;11489;50.834;6.752;2022-11-15T00:00:50;7.88;;;4.70;;
22644;SDS011;11489;50.834;6.752;2022-11-15T00:03:19;6.88;;;4.55;;
22644;SDS011;11489;50.834;6.752;2022-11-15T00:05:47;7.70;;;4.57;;
22644;SDS011;11489;50.834;6.752;2022-11-15T00:08:13;9.43;;;4.88;;
22644;SDS011;11489;50.834;6.752;2022-11-15T00:10:38;6.28;;;4.05;;
22644;SDS011;11489;50.834;6.752;2022-11-15T00:13:05;7.75;;;4.28;;
22644;SDS011;11489;50.834;6.752;2022-11-15T00:15:36;5.80;;;4.32;;
22644;SDS011;11489;50.834;6.752;2022-11-15T00:18:03;7.28;;;4.30;;
22644;SDS011;11489;50.834;6.752;2022-11-15T00:20:30;10.02;;;4.55;;
22644;SDS011;11489;50.834;6.752;2022-11-15T00:22:56;6.93;;;4.22;;
22644;SDS011;11489;50.834;6.752;2022-11-15T00:25:21;6.70;;;4.05;;
22644;SDS011;11489;50.834;6.752;2022-11-15T00:27:47;6.50;;;4.05;;
22644;SDS011;11489;50.834;6.752;2022-11-15T00:30:13;8.52;;;4.18;;
22644;SDS011;11489;50.834;6.752;2022-11-15T00:32:38;5.70;;;3.83;;
22644;SDS011;11489;50.834;6.752;2022-11-15T00:35:04;6.40;;;4.03;;
22644;SDS011;11489;50.834;6.752;2022-11-15T00:37:30;5.50;;;3.92;;
22644;SDS011;11489;50.834;6.752;2022-11-15T00:39:56;6.78;;;4.10;;
22644;SDS011;11489;50.834;6.752;2022-11-15T00:42:21;7.53;;;4.13;;
22644;SDS011;11489;50.834;6.752;2022-11-15T00:44:47;10.23;;;4.20;;
22644;SDS011;11489;50.834;6.752;2022-11-15T00:47:13;6.93;;;4.50;;
22644;SDS011;11489;50.834;6.752;2022-11-15T00:49:38;5.68;;;4.10;;
22644;SDS011;11489;50.834;6.752;2022-11-15T00:52:04;6.60;;;4.32;;
22644;SDS011;11489;50.834;6.752;2022-11-15T00:54:29;6.07;;;3.65;;
22644;SDS011;11489;50.834;6.752;2022-11-15T00:56:55;7.15;;;4.05;;
22644;SDS011;11489;50.834;6.752;2022-11-15T00:59:21;7.45;;;4.05;;
22644;SDS011;11489;50.834;6.752;2022-11-15T01:01:46;8.48;;;4.55;;
22644;SDS011;11489;50.834;6.752;2022-11-15T01:04:12;6.68;;;4.13;;
22644;SDS011;11489;50.834;6.752;2022-11-15T01:06:38;7.40;;;4.90;;
22644;SDS011;11489;50.834;6.752;2022-11-15T01:09:04;7.72;;;4.20;;
22644;SDS011;11489;50.834;6.752;2022-11-15T01:11:30;7.03;;;3.97;;
22644;SDS011;11489;50.834;6.752;2022-11-15T01:13:55;5.80;;;3.90;;
22644;SDS011;11489;50.834;6.752;2022-11-15T01:16:21;8.00;;;4.22;;
22644;SDS011;11489;50.834;6.752;2022-11-15T01:18:47;6.93;;;4.38;;
22644;SDS011;11489;50.834;6.752;2022-11-15T01:21:13;5.90;;;3.78;;
22644;SDS011;11489;50.834;6.752;2022-11-15T01:23:41;9.73;;;4.00;;
22644;SDS011;11489;50.834;6.752;2022-11-15T01:26:09;7.07;;;3.70;;
22644;SDS011;11489;50.834;6.752;2022-11-15T01:28:38;7.22;;;4.13;;
22644;SDS011;11489;50.834;6.752;2022-11-15T01:31:06;7.57;;;4.50;;
22644;SDS011;11489;50.834;6.752;2022-11-15T01:33:36;6.47;;;4.53;;
22644;SDS011;11489;50.834;6.752;2022-11-15T01:36:05;6.55;;;4.57;;
22644;SDS011;11489;50.834;6.752;2022-11-15T01:38:53;8.10;;;5.00;;
22644;SDS011;11489;50.834;6.752;2022-11-15T01:41:21;7.25;;;4.40;;
22644;SDS011;11489;50.834;6.752;2022-11-15T01:43:54;6.35;;;4.57;;
22644;SDS011;11489;50.834;6.752;2022-11-15T01:49:00;6.03;;;4.32;;
22644;SDS011;11489;50.834;6.752;2022-11-15T01:51:31;7.47;;;4.47;;
22644;SDS011;11489;50.834;6.752;2022-11-15T01:54:05;7.90;;;4.93;;
22644;SDS011;11489;50.834;6.752;2022-11-15T01:56:41;10.20;;;5.40;;
22644;SDS011;11489;50.834;6.752;2022-11-15T01:59:11;6.57;;;4.78;;
22644;SDS011;11489;50.834;6.752;2022-11-15T02:01:37;9.07;;;4.60;;
22644;SDS011;11489;50.834;6.752;2022-11-15T02:06:34;6.18;;;4.60;;
22644;SDS011;11489;50.834;6.752;2022-11-15T02:09:01;8.45;;;4.90;;
22644;SDS011;11489;50.834;6.752;2022-11-15T02:11:27;7.13;;;4.78;;
22644;SDS011;11489;50.834;6.752;2022-11-15T02:13:54;9.52;;;5.47;;
22644;SDS011;11489;50.834;6.752;2022-11-15T02:18:49;8.63;;;5.35;;
22644;SDS011;11489;50.834;6.752;2022-11-15T02:24:05;6.38;;;4.22;;
22644;SDS011;11489;50.834;6.752;2022-11-15T02:35:41;5.53;;;4.18;;
22644;SDS011;11489;50.834;6.752;2022-11-15T02:38:10;4.50;;;3.67;;
22644;SDS011;11489;50.834;6.752;2022-11-15T02:43:21;5.03;;;4.03;;
22644;SDS011;11489;50.834;6.752;2022-11-15T02:46:16;5.18;;;3.80;;
22644;SDS011;11489;50.834;6.752;2022-11-15T02:48:47;6.22;;;4.03;;
22644;SDS011;11489;50.834;6.752;2022-11-15T02:51:13;6.68;;;3.65;;
22644;SDS011;11489;50.834;6.752;2022-11-15T02:53:41;4.43;;;3.65;;
22644;SDS011;11489;50.834;6.752;2022-11-15T02:56:07;4.50;;;3.78;;
22644;SDS011;11489;50.834;6.752;2022-11-15T02:58:51;5.80;;;4.03;;
22644;SDS011;11489;50.834;6.752;2022-11-15T03:02:09;5.65;;;3.88;;
22644;SDS011;11489;50.834;6.752;2022-11-15T03:05:23;5.13;;;3.50;;
22644;SDS011;11489;50.834;6.752;2022-11-15T03:08:07;6.60;;;3.60;;
22644;SDS011;11489;50.834;6.752;2022-11-15T03:10:50;5.85;;;3.85;;
22644;SDS011;11489;50.834;6.752;2022-11-15T03:13:51;5.30;;;3.85;;
22644;SDS011;11489;50.834;6.752;2022-11-15T03:16:38;4.53;;;3.33;;
22644;SDS011;11489;50.834;6.752;2022-11-15T03:19:13;4.38;;;3.58;;
22644;SDS011;11489;50.834;6.752;2022-11-15T03:21:44;5.25;;;3.95;;
22644;SDS011;11489;50.834;6.752;2022-11-15T03:24:12;4.35;;;3.55;;
22644;SDS011;11489;50.834;6.752;2022-11-15T03:26:40;5.97;;;3.63;;
22644;SDS011;11489;50.834;6.752;2022-11-15T03:29:12;5.38;;;3.60;;
22644;SDS011;11489;50.834;6.752;2022-11-15T03:31:45;5.57;;;3.05;;
22644;SDS011;11489;50.834;6.752;2022-11-15T03:34:17;8.30;;;3.38;;
22644;SDS011;11489;50.834;6.752;2022-11-15T03:36:53;6.65;;;3.33;;
22644;SDS011;11489;50.834;6.752;2022-11-15T03:39:19;4.00;;;2.92;;
22644;SDS011;11489;50.834;6.752;2022-11-15T03:41:50;5.38;;;3.00;;
22644;SDS011;11489;50.834;6.752;2022-11-15T03:47:23;4.20;;;3.15;;
22644;SDS011;11489;50.834;6.752;2022-11-15T03:49:52;5.28;;;2.85;;
22644;SDS011;11489;50.834;6.752;2022-11-15T03:52:23;3.70;;;2.42;;
22644;SDS011;11489;50.834;6.752;2022-11-15T03:54:50;3.15;;;2.50;;
22644;SDS011;11489;50.834;6.752;2022-11-15T03:57:18;3.08;;;2.30;;
22644;SDS011;11489;50.834;6.752;2022-11-15T03:59:43;3.08;;;2.40;;
22644;SDS011;11489;50.834;6.752;2022-11-15T04:02:09;2.75;;;2.22;;
22644;SDS011;11489;50.834;6.752;2022-11-15T04:04:35;3.33;;;2.35;;
22644;SDS011;11489;50.834;6.752;2022-11-15T04:07:01;2.72;;;2.25;;
22644;SDS011;11489;50.834;6.752;2022-11-15T04:09:26;2.95;;;1.90;;
22644;SDS011;11489;50.834;6.752;2022-11-15T04:11:52;2.47;;;2.10;;
22644;SDS011;11489;50.834;6.752;2022-11-15T04:14:17;3.28;;;2.30;;
22644;SDS011;11489;50.834;6.752;2022-11-15T04:16:43;4.40;;;2.25;;
22644;SDS011;11489;50.834;6.752;2022-11-15T04:19:09;2.83;;;2.20;;
22644;SDS011;11489;50.834;6.752;2022-11-15T04:21:53;2.08;;;1.75;;
22644;SDS011;11489;50.834;6.752;2022-11-15T04:24:37;3.47;;;2.10;;
22644;SDS011;11489;50.834;6.752;2022-11-15T04:27:03;3.97;;;2.03;;
22644;SDS011;11489;50.834;6.752;2022-11-15T04:29:29;3.85;;;2.15;;
22644;SDS011;11489;50.834;6.752;2022-11-15T04:32:03;3.10;;;2.10;;
22644;SDS011;11489;50.834;6.752;2022-11-15T04:34:30;2.63;;;1.98;;
22644;SDS011;11489;50.834;6.752;2022-11-15T04:36:56;2.47;;;2.03;;
22644;SDS011;11489;50.834;6.752;2022-11-15T04:39:38;2.70;;;1.83;;
22644;SDS011;11489;50.834;6.752;2022-11-15T04:42:07;2.22;;;1.95;;
22644;SDS011;11489;50.834;6.752;2022-11-15T04:44:34;2.17;;;1.95;;
22644;SDS011;11489;50.834;6.752;2022-11-15T04:47:00;3.50;;;2.17;;
22644;SDS011;11489;50.834;6.752;2022-11-15T04:49:26;3.45;;;2.05;;
22644;SDS011;11489;50.834;6.752;2022-11-15T04:51:51;3.97;;;1.98;;
22644;SDS011;11489;50.834;6.752;2022-11-15T04:54:17;2.47;;;2.08;;
22644;SDS011;11489;50.834;6.752;2022-11-15T04:56:43;2.35;;;1.67;;
22644;SDS011;11489;50.834;6.752;2022-11-15T04:59:08;2.50;;;2.10;;
22644;SDS011;11489;50.834;6.752;2022-11-15T05:01:34;2.42;;;1.77;;
22644;SDS011;11489;50.834;6.752;2022-11-15T05:03:59;2.28;;;1.70;;
22644;SDS011;11489;50.834;6.752;2022-11-15T05:06:44;2.33;;;1.60;;
22644;SDS011;11489;50.834;6.752;2022-11-15T05:09:10;2.30;;;1.63;;
22644;SDS011;11489;50.834;6.752;2022-11-15T05:11:38;3.25;;;1.48;;
22644;SDS011;11489;50.834;6.752;2022-11-15T05:14:03;2.90;;;1.50;;
22644;SDS011;11489;50.834;6.752;2022-11-15T05:16:29;1.83;;;1.40;;
22644;SDS011;11489;50.834;6.752;2022-11-15T05:18:55;1.38;;;1.25;;
22644;SDS011;11489;50.834;6.752;2022-11-15T05:21:20;2.00;;;1.17;;
22644;SDS011;11489;50.834;6.752;2022-11-15T05:23:46;1.13;;;1.00;;
22644;SDS011;11489;50.834;6.752;2022-11-15T05:26:12;1.42;;;1.10;;
22644;SDS011;11489;50.834;6.752;2022-11-15T05:28:40;1.27;;;1.10;;
22644;SDS011;11489;50.834;6.752;2022-11-15T05:31:06;1.30;;;1.20;;
22644;SDS011;11489;50.834;6.752;2022-11-15T05:33:37;1.17;;;1.00;;
22644;SDS011;11489;50.834;6.752;2022-11-15T05:36:05;1.50;;;1.00;;
22644;SDS011;11489;50.834;6.752;2022-11-15T05:39:03;3.30;;;1.20;;
22644;SDS011;11489;50.834;6.752;2022-11-15T05:41:41;2.97;;;1.40;;
22644;SDS011;11489;50.834;6.752;2022-11-15T05:44:17;1.95;;;1.50;;
22644;SDS011;11489;50.834;6.752;2022-11-15T05:46:46;2.20;;;1.48;;
22644;SDS011;11489;50.834;6.752;2022-11-15T05:49:14;3.17;;;1.70;;
22644;SDS011;11489;50.834;6.752;2022-11-15T05:51:43;2.38;;;1.80;;
22644;SDS011;11489;50.834;6.752;2022-11-15T05:54:12;3.75;;;1.83;;
22644;SDS011;11489;50.834;6.752;2022-11-15T05:56:38;2.90;;;1.95;;
22644;SDS011;11489;50.834;6.752;2022-11-15T05:59:04;4.55;;;2.10;;
22644;SDS011;11489;50.834;6.752;2022-11-15T06:01:32;3.90;;;1.80;;
22644;SDS011;11489;50.834;6.752;2022-11-15T06:03:57;2.00;;;1.65;;
22644;SDS011;11489;50.834;6.752;2022-11-15T06:06:23;2.78;;;1.48;;
22644;SDS011;11489;50.834;6.752;2022-11-15T06:08:48;2.10;;;1.25;;
22644;SDS011;11489;50.834;6.752;2022-11-15T06:11:14;2.03;;;1.50;;
22644;SDS011;11489;50.834;6.752;2022-11-15T06:13:40;1.80;;;1.50;;
22644;SDS011;11489;50.834;6.752;2022-11-15T06:16:06;2.85;;;1.60;;
22644;SDS011;11489;50.834;6.752;2022-11-15T06:18:32;2.97;;;1.70;;
22644;SDS011;11489;50.834;6.752;2022-11-15T06:20:59;2.97;;;1.73;;
22644;SDS011;11489;50.834;6.752;2022-11-15T06:23:25;2.70;;;1.70;;
22644;SDS011;11489;50.834;6.752;2022-11-15T06:25:51;3.92;;;1.60;;
22644;SDS011;11489;50.834;6.752;2022-11-15T06:28:16;3.50;;;1.60;;
22644;SDS011;11489;50.834;6.752;2022-11-15T06:30:42;2.38;;;1.45;;
22644;SDS011;11489;50.834;6.752;2022-11-15T06:33:08;2.92;;;1.88;;
22644;SDS011;11489;50.834;6.752;2022-11-15T06:35:34;2.47;;;1.67;;
22644;SDS011;11489;50.834;6.752;2022-11-15T06:38:08;2.85;;;1.58;;
22644;SDS011;11489;50.834;6.752;2022-11-15T06:40:35;2.83;;;1.77;;
22644;SDS011;11489;50.834;6.752;2022-11-15T06:43:03;2.05;;;1.35;;
22644;SDS011;11489;50.834;6.752;2022-11-15T06:45:30;2.70;;;1.60;;
22644;SDS011;11489;50.834;6.752;2022-11-15T06:47:56;2.83;;;1.70;;
22644;SDS011;11489;50.834;6.752;2022-11-15T06:50:22;2.60;;;1.70;;
22644;SDS011;11489;50.834;6.752;2022-11-15T06:52:48;4.55;;;1.90;;
22644;SDS011;11489;50.834;6.752;2022-11-15T06:55:14;2.78;;;1.83;;
22644;SDS011;11489;50.834;6.752;2022-11-15T06:57:50;3.90;;;1.85;;
22644;SDS011;11489;50.834;6.752;2022-11-15T07:00:17;4.68;;;2.00;;
22644;SDS011;11489;50.834;6.752;2022-11-15T07:02:44;4.38;;;2.70;;
22644;SDS011;11489;50.834;6.752;2022-11-15T07:05:11;3.92;;;2.33;;
22644;SDS011;11489;50.834;6.752;2022-11-15T07:07:37;8.52;;;2.13;;
22644;SDS011;11489;50.834;6.752;2022-11-15T07:10:03;4.22;;;2.50;;
22644;SDS011;11489;50.834;6.752;2022-11-15T07:12:29;3.53;;;2.25;;
22644;SDS011;11489;50.834;6.752;2022-11-15T07:14:54;2.90;;;2.17;;
22644;SDS011;11489;50.834;6.752;2022-11-15T07:17:20;4.32;;;2.10;;
22644;SDS011;11489;50.834;6.752;2022-11-15T07:19:46;2.78;;;2.00;;
22644;SDS011;11489;50.834;6.752;2022-11-15T07:22:12;2.97;;;2.00;;
22644;SDS011;11489;50.834;6.752;2022-11-15T07:24:38;2.92;;;2.03;;
22644;SDS011;11489;50.834;6.752;2022-11-15T07:27:03;3.95;;;1.98;;
22644;SDS011;11489;50.834;6.752;2022-11-15T07:29:29;3.88;;;2.38;;
22644;SDS011;11489;50.834;6.752;2022-11-15T07:31:55;2.92;;;2.20;;
22644;SDS011;11489;50.834;6.752;2022-11-15T07:34:20;3.92;;;2.33;;
22644;SDS011;11489;50.834;6.752;2022-11-15T07:36:46;2.53;;;2.10;;
22644;SDS011;11489;50.834;6.752;2022-11-15T07:39:11;6.10;;;2.42;;
22644;SDS011;11489;50.834;6.752;2022-11-15T07:41:39;2.88;;;2.30;;
22644;SDS011;11489;50.834;6.752;2022-11-15T07:44:04;3.20;;;2.05;;
22644;SDS011;11489;50.834;6.752;2022-11-15T07:46:30;4.22;;;2.20;;
22644;SDS011;11489;50.834;6.752;2022-11-15T07:48:56;3.95;;;1.98;;
22644;SDS011;11489;50.834;6.752;2022-11-15T07:51:22;4.60;;;2.47;;
22644;SDS011;11489;50.834;6.752;2022-11-15T07:53:48;3.50;;;2.03;;
22644;SDS011;11489;50.834;6.752;2022-11-15T07:56:13;3.08;;;1.88;;
22644;SDS011;11489;50.834;6.752;2022-11-15T07:58:40;4.63;;;1.98;;
22644;SDS011;11489;50.834;6.752;2022-11-15T08:01:06;2.92;;;1.83;;
22644;SDS011;11489;50.834;6.752;2022-11-15T08:03:33;4.10;;;1.83;;
22644;SDS011;11489;50.834;6.752;2022-11-15T08:05:59;3.88;;;1.92;;
22644;SDS011;11489;50.834;6.752;2022-11-15T08:08:26;3.50;;;1.90;;
22644;SDS011;11489;50.834;6.752;2022-11-15T08:10:51;2.67;;;1.75;;
22644;SDS011;11489;50.834;6.752;2022-11-15T08:13:17;3.17;;;1.80;;
22644;SDS011;11489;50.834;6.752;2022-11-15T08:15:43;3.45;;;1.80;;
22644;SDS011;11489;50.834;6.752;2022-11-15T08:18:10;5.95;;;2.00;;
22644;SDS011;11489;50.834;6.752;2022-11-15T08:20:40;2.67;;;1.50;;
22644;SDS011;11489;50.834;6.752;2022-11-15T08:23:06;3.08;;;2.05;;
22644;SDS011;11489;50.834;6.752;2022-11-15T08:25:33;3.28;;;1.98;;
22644;SDS011;11489;50.834;6.752;2022-11-15T08:28:02;2.10;;;1.60;;
22644;SDS011;11489;50.834;6.752;2022-11-15T08:30:30;2.60;;;1.60;;
22644;SDS011;11489;50.834;6.752;2022-11-15T08:32:59;2.60;;;1.70;;
22644;SDS011;11489;50.834;6.752;2022-11-15T08:35:25;4.97;;;1.83;;
22644;SDS011;11489;50.834;6.752;2022-11-15T08:37:52;4.38;;;1.80;;
22644;SDS011;11489;50.834;6.752;2022-11-15T08:40:18;7.00;;;1.83;;
22644;SDS011;11489;50.834;6.752;2022-11-15T08:42:47;3.05;;;1.67;;
22644;SDS011;11489;50.834;6.752;2022-11-15T08:45:14;2.63;;;1.70;;
22644;SDS011;11489;50.834;6.752;2022-11-15T08:47:40;2.10;;;1.42;;
22644;SDS011;11489;50.834;6.752;2022-11-15T08:50:06;3.75;;;1.52;;
22644;SDS011;11489;50.834;6.752;2022-11-15T08:52:32;2.78;;;1.70;;
22644;SDS011;11489;50.834;6.752;2022-11-15T08:54:58;15.93;;;2.10;;
22644;SDS011;11489;50.834;6.752;2022-11-15T08:57:23;1.38;;;1.27;;
22644;SDS011;11489;50.834;6.752;2022-11-15T08:59:49;3.25;;;1.48;;
22644;SDS011;11489;50.834;6.752;2022-11-15T09:02:15;2.33;;;1.23;;
22644;SDS011;11489;50.834;6.752;2022-11-15T09:04:41;2.63;;;1.50;;
22644;SDS011;11489;50.834;6.752;2022-11-15T09:07:08;2.63;;;1.23;;
22644;SDS011;11489;50.834;6.752;2022-11-15T09:09:35;1.35;;;1.10;;
22644;SDS011;11489;50.834;6.752;2022-11-15T09:12:01;2.83;;;1.30;;
22644;SDS011;11489;50.834;6.752;2022-11-15T09:14:26;3.80;;;1.17;;
22644;SDS011;11489;50.834;6.752;2022-11-15T09:16:52;2.70;;;1.00;;
22644;SDS011;11489;50.834;6.752;2022-11-15T09:19:17;1.58;;;1.00;;
22644;SDS011;11489;50.834;6.752;2022-11-15T09:21:43;3.25;;;1.30;;
22644;SDS011;11489;50.834;6.752;2022-11-15T09:24:09;1.85;;;1.25;;
22644;SDS011;11489;50.834;6.752;2022-11-15T09:26:34;1.90;;;0.80;;
22644;SDS011;11489;50.834;6.752;2022-11-15T09:29:00;2.70;;;0.85;;
22644;SDS011;11489;50.834;6.752;2022-11-15T09:31:27;2.67;;;1.00;;
22644;SDS011;11489;50.834;6.752;2022-11-15T09:33:54;1.92;;;0.80;;
22644;SDS011;11489;50.834;6.752;2022-11-15T09:36:20;2.28;;;0.90;;
22644;SDS011;11489;50.834;6.752;2022-11-15T09:38:46;0.88;;;0.75;;
22644;SDS011;11489;50.834;6.752;2022-11-15T09:46:47;1.00;;;0.88;;
22644;SDS011;11489;50.834;6.752;2022-11-15T09:49:35;5.20;;;0.90;;
22644;SDS011;11489;50.834;6.752;2022-11-15T09:52:00;1.40;;;0.73;;
22644;SDS011;11489;50.834;6.752;2022-11-15T09:56:56;1.63;;;0.63;;
22644;SDS011;11489;50.834;6.752;2022-11-15T10:04:57;3.63;;;0.70;;
22644;SDS011;11489;50.834;6.752;2022-11-15T10:07:28;1.15;;;0.70;;
22644;SDS011;11489;50.834;6.752;2022-11-15T10:10:04;1.25;;;0.70;;
22644;SDS011;11489;50.834;6.752;2022-11-15T10:12:49;1.27;;;0.70;;
22644;SDS011;11489;50.834;6.752;2022-11-15T10:15:17;1.55;;;0.60;;
22644;SDS011;11489;50.834;6.752;2022-11-15T10:20:26;1.08;;;0.60;;
22644;SDS011;11489;50.834;6.752;2022-11-15T10:22:54;2.35;;;0.77;;
22644;SDS011;11489;50.834;6.752;2022-11-15T10:25:24;1.90;;;0.63;;
22644;SDS011;11489;50.834;6.752;2022-11-15T10:28:05;1.35;;;0.55;;
22644;SDS011;11489;50.834;6.752;2022-11-15T10:30:39;0.55;;;0.50;;
22644;SDS011;11489;50.834;6.752;2022-11-15T10:33:24;4.40;;;0.60;;
22644;SDS011;11489;50.834;6.752;2022-11-15T10:44:02;1.60;;;0.60;;
22644;SDS011;11489;50.834;6.752;2022-11-15T10:46:34;2.20;;;0.57;;
22644;SDS011;11489;50.834;6.752;2022-11-15T10:49:11;0.90;;;0.60;;
22644;SDS011;11489;50.834;6.752;2022-11-15T10:51:40;1.33;;;0.70;;
22644;SDS011;11489;50.834;6.752;2022-11-15T10:54:40;1.70;;;0.63;;
22644;SDS011;11489;50.834;6.752;2022-11-15T10:59:42;1.63;;;0.70;;
22644;SDS011;11489;50.834;6.752;2022-11-15T11:04:54;2.05;;;0.57;;
22644;SDS011;11489;50.834;6.752;2022-11-15T11:07:22;1.85;;;0.55;;
22644;SDS011;11489;50.834;6.752;2022-11-15T11:09:56;1.85;;;0.50;;
22644;SDS011;11489;50.834;6.752;2022-11-15T11:12:30;2.72;;;0.68;;
22644;SDS011;11489;50.834;6.752;2022-11-15T11:14:58;0.52;;;0.47;;
22644;SDS011;11489;50.834;6.752;2022-11-15T11:25:50;2.47;;;0.77;;
22644;SDS011;11489;50.834;6.752;2022-11-15T11:29:20;1.23;;;0.70;;
22644;SDS011;11489;50.834;6.752;2022-11-15T11:32:11;1.25;;;0.50;;
22644;SDS011;11489;50.834;6.752;2022-11-15T11:34:32;1.35;;;0.68;;
22644;SDS011;11489;50.834;6.752;2022-11-15T11:43:12;3.55;;;0.70;;
22644;SDS011;11489;50.834;6.752;2022-11-15T11:51:11;1.95;;;0.70;;
22644;SDS011;11489;50.834;6.752;2022-11-15T11:53:50;1.88;;;0.77;;
22644;SDS011;11489;50.834;6.752;2022-11-15T11:56:49;1.70;;;0.65;;
22644;SDS011;11489;50.834;6.752;2022-11-15T11:59:25;4.32;;;0.70;;
22644;SDS011;11489;50.834;6.752;2022-11-15T12:01:57;5.68;;;0.90;;
22644;SDS011;11489;50.834;6.752;2022-11-15T12:04:38;0.98;;;0.60;;
22644;SDS011;11489;50.834;6.752;2022-11-15T12:09:46;1.05;;;0.60;;
22644;SDS011;11489;50.834;6.752;2022-11-15T12:12:17;1.08;;;0.60;;
22644;SDS011;11489;50.834;6.752;2022-11-15T12:14:51;2.03;;;0.73;;
22644;SDS011;11489;50.834;6.752;2022-11-15T12:17:25;0.90;;;0.70;;
22644;SDS011;11489;50.834;6.752;2022-11-15T12:19:55;3.13;;;0.75;;
22644;SDS011;11489;50.834;6.752;2022-11-15T12:22:23;1.58;;;0.70;;
22644;SDS011;11489;50.834;6.752;2022-11-15T12:25:05;4.53;;;1.08;;
22644;SDS011;11489;50.834;6.752;2022-11-15T12:27:39;3.20;;;0.80;;
22644;SDS011;11489;50.834;6.752;2022-11-15T12:30:17;3.20;;;0.80;;
22644;SDS011;11489;50.834;6.752;2022-11-15T12:35:25;3.03;;;0.85;;
22644;SDS011;11489;50.834;6.752;2022-11-15T12:38:00;3.75;;;0.82;;
22644;SDS011;11489;50.834;6.752;2022-11-15T12:42:58;2.53;;;0.80;;
22644;SDS011;11489;50.834;6.752;2022-11-15T12:45:25;2.72;;;1.00;;
22644;SDS011;11489;50.834;6.752;2022-11-15T12:48:44;1.60;;;0.80;;
22644;SDS011;11489;50.834;6.752;2022-11-15T12:51:00;2.60;;;0.93;;
22644;SDS011;11489;50.834;6.752;2022-11-15T13:01:57;2.47;;;1.05;;
22644;SDS011;11489;50.834;6.752;2022-11-15T13:06:49;4.57;;;1.00;;
22644;SDS011;11489;50.834;6.752;2022-11-15T13:09:49;3.15;;;1.17;;
22644;SDS011;11489;50.834;6.752;2022-11-15T13:12:47;1.60;;;0.90;;
22644;SDS011;11489;50.834;6.752;2022-11-15T13:15:00;3.67;;;1.25;;
22644;SDS011;11489;50.834;6.752;2022-11-15T13:25:16;1.92;;;1.25;;
22644;SDS011;11489;50.834;6.752;2022-11-15T13:28:02;2.28;;;1.10;;
22644;SDS011;11489;50.834;6.752;2022-11-15T13:30:34;2.72;;;1.10;;
22644;SDS011;11489;50.834;6.752;2022-11-15T13:33:01;4.85;;;1.10;;
22644;SDS011;11489;50.834;6.752;2022-11-15T13:35:39;3.28;;;1.52;;
22644;SDS011;11489;50.834;6.752;2022-11-15T13:38:06;2.45;;;1.30;;
22644;SDS011;11489;50.834;6.752;2022-11-15T13:40:42;2.42;;;1.50;;
22644;SDS011;11489;50.834;6.752;2022-11-15T13:46:23;3.13;;;1.65;;
22644;SDS011;11489;50.834;6.752;2022-11-15T13:48:46;2.58;;;1.73;;
22644;SDS011;11489;50.834;6.752;2022-11-15T13:53:57;5.10;;;1.80;;
22644;SDS011;11489;50.834;6.752;2022-11-15T13:56:33;5.15;;;2.15;;
22644;SDS011;11489;50.834;6.752;2022-11-15T13:59:00;2.58;;;1.95;;
22644;SDS011;11489;50.834;6.752;2022-11-15T14:01:33;3.28;;;2.13;;
22644;SDS011;11489;50.834;6.752;2022-11-15T14:03:59;3.80;;;1.92;;
22644;SDS011;11489;50.834;6.752;2022-11-15T14:06:27;2.88;;;2.22;;
22644;SDS011;11489;50.834;6.752;2022-11-15T14:11:23;3.38;;;2.30;;
22644;SDS011;11489;50.834;6.752;2022-11-15T14:16:34;4.47;;;2.17;;
22644;SDS011;11489;50.834;6.752;2022-11-15T14:19:05;2.67;;;2.00;;
22644;SDS011;11489;50.834;6.752;2022-11-15T14:21:34;4.65;;;2.33;;
22644;SDS011;11489;50.834;6.752;2022-11-15T14:24:13;3.03;;;1.98;;
22644;SDS011;11489;50.834;6.752;2022-11-15T14:26:43;6.07;;;2.05;;
22644;SDS011;11489;50.834;6.752;2022-11-15T14:29:22;3.42;;;1.90;;
22644;SDS011;11489;50.834;6.752;2022-11-15T14:31:48;4.18;;;2.22;;
22644;SDS011;11489;50.834;6.752;2022-11-15T14:34:14;7.15;;;2.20;;
22644;SDS011;11489;50.834;6.752;2022-11-15T14:36:40;2.40;;;1.90;;
22644;SDS011;11489;50.834;6.752;2022-11-15T14:39:06;5.82;;;1.80;;
22644;SDS011;11489;50.834;6.752;2022-11-15T14:41:34;7.57;;;2.30;;
22644;SDS011;11489;50.834;6.752;2022-11-15T14:44:04;4.70;;;2.30;;
22644;SDS011;11489;50.834;6.752;2022-11-15T14:46:30;3.25;;;2.28;;
22644;SDS011;11489;50.834;6.752;2022-11-15T14:48:56;3.10;;;2.10;;
22644;SDS011;11489;50.834;6.752;2022-11-15T14:51:22;2.47;;;1.83;;
22644;SDS011;11489;50.834;6.752;2022-11-15T14:53:48;3.83;;;1.95;;
22644;SDS011;11489;50.834;6.752;2022-11-15T14:56:14;3.10;;;2.17;;
22644;SDS011;11489;50.834;6.752;2022-11-15T14:58:41;3.20;;;2.10;;
22644;SDS011;11489;50.834;6.752;2022-11-15T15:04:05;3.10;;;1.90;;
22644;SDS011;11489;50.834;6.752;2022-11-15T15:06:31;2.88;;;1.67;;
22644;SDS011;11489;50.834;6.752;2022-11-15T15:08:56;4.00;;;1.75;;
22644;SDS011;11489;50.834;6.752;2022-11-15T15:11:23;2.70;;;1.85;;
22644;SDS011;11489;50.834;6.752;2022-11-15T15:13:51;3.92;;;1.65;;
22644;SDS011;11489;50.834;6.752;2022-11-15T15:16:17;2.97;;;1.52;;
22644;SDS011;11489;50.834;6.752;2022-11-15T15:18:43;1.48;;;1.35;;
22644;SDS011;11489;50.834;6.752;2022-11-15T15:21:22;5.75;;;1.90;;
22644;SDS011;11489;50.834;6.752;2022-11-15T15:23:49;3.22;;;1.70;;
22644;SDS011;11489;50.834;6.752;2022-11-15T15:26:15;2.70;;;1.83;;
22644;SDS011;11489;50.834;6.752;2022-11-15T15:28:41;2.08;;;1.48;;
22644;SDS011;11489;50.834;6.752;2022-11-15T15:31:08;2.55;;;1.90;;
22644;SDS011;11489;50.834;6.752;2022-11-15T15:33:34;3.00;;;1.70;;
22644;SDS011;11489;50.834;6.752;2022-11-15T15:36:00;4.22;;;1.50;;
22644;SDS011;11489;50.834;6.752;2022-11-15T15:38:26;2.72;;;1.60;;
22644;SDS011;11489;50.834;6.752;2022-11-15T15:40:53;3.08;;;1.63;;
22644;SDS011;11489;50.834;6.752;2022-11-15T15:43:19;4.70;;;1.65;;
22644;SDS011;11489;50.834;6.752;2022-11-15T15:45:45;4.93;;;1.63;;
22644;SDS011;11489;50.834;6.752;2022-11-15T15:48:11;2.30;;;1.50;;
22644;SDS011;11489;50.834;6.752;2022-11-15T15:50:39;2.92;;;1.33;;
22644;SDS011;11489;50.834;6.752;2022-11-15T15:53:05;5.60;;;1.60;;
22644;SDS011;11489;50.834;6.752;2022-11-15T15:55:31;3.20;;;1.75;;
22644;SDS011;11489;50.834;6.752;2022-11-15T15:57:57;4.50;;;2.50;;
22644;SDS011;11489;50.834;6.752;2022-11-15T16:00:23;7.63;;;4.93;;
22644;SDS011;11489;50.834;6.752;2022-11-15T16:02:50;19.10;;;12.50;;
22644;SDS011;11489;50.834;6.752;2022-11-15T16:05:17;17.33;;;9.82;;
22644;SDS011;11489;50.834;6.752;2022-11-15T16:07:43;13.35;;;8.68;;
22644;SDS011;11489;50.834;6.752;2022-11-15T16:10:15;8.93;;;4.82;;
22644;SDS011;11489;50.834;6.752;2022-11-15T16:12:42;5.60;;;3.05;;
22644;SDS011;11489;50.834;6.752;2022-11-15T16:15:08;3.83;;;3.00;;
22644;SDS011;11489;50.834;6.752;2022-11-15T16:17:35;3.95;;;2.08;;
22644;SDS011;11489;50.834;6.752;2022-11-15T16:20:04;3.25;;;2.28;;
22644;SDS011;11489;50.834;6.752;2022-11-15T16:22:30;4.10;;;1.95;;
22644;SDS011;11489;50.834;6.752;2022-11-15T16:24:56;2.65;;;1.75;;
22644;SDS011;11489;50.834;6.752;2022-11-15T16:27:22;2.80;;;1.90;;
22644;SDS011;11489;50.834;6.752;2022-11-15T16:29:48;2.75;;;1.75;;
22644;SDS011;11489;50.834;6.752;2022-11-15T16:32:14;3.55;;;1.50;;
22644;SDS011;11489;50.834;6.752;2022-11-15T16:34:40;2.67;;;1.80;;
22644;SDS011;11489;50.834;6.752;2022-11-15T16:37:15;3.22;;;1.60;;
22644;SDS011;11489;50.834;6.752;2022-11-15T16:39:46;2.85;;;1.65;;
22644;SDS011;11489;50.834;6.752;2022-11-15T16:42:12;2.13;;;1.60;;
22644;SDS011;11489;50.834;6.752;2022-11-15T16:44:38;2.78;;;1.80;;
22644;SDS011;11489;50.834;6.752;2022-11-15T16:47:03;3.30;;;1.70;;
22644;SDS011;11489;50.834;6.752;2022-11-15T16:49:29;2.03;;;1.52;;
22644;SDS011;11489;50.834;6.752;2022-11-15T16:51:55;2.15;;;1.67;;
22644;SDS011;11489;50.834;6.752;2022-11-15T16:54:20;3.25;;;1.52;;
22644;SDS011;11489;50.834;6.752;2022-11-15T16:56:46;5.18;;;1.63;;